createdAt,value
2018-12-15T00:00:50.986Z,88.80
2018-12-15T00:03:20.230Z,89.40
2018-12-15T00:05:49.231Z,88.90
2018-12-15T00:08:18.367Z,88.90
2018-12-15T00:10:47.746Z,89.50
2018-12-15T00:13:16.974Z,89.20
2018-12-15T00:15:46.270Z,88.80
2018-12-15T00:18:15.754Z,88.80
2018-12-15T00:20:45.059Z,88.80
2018-12-15T00:23:14.402Z,88.80
2018-12-15T00:25:43.668Z,89.70
2018-12-15T00:28:12.779Z,89.80
2018-12-15T00:30:41.907Z,90.00
2018-12-15T00:33:11.057Z,89.90
2018-12-15T00:35:40.307Z,89.00
2018-12-15T00:38:09.477Z,88.60
2018-12-15T00:40:39.012Z,88.80
2018-12-15T00:43:08.187Z,89.20
2018-12-15T00:45:37.278Z,88.00
2018-12-15T00:48:06.598Z,88.80
2018-12-15T00:50:35.689Z,88.20
2018-12-15T00:53:04.913Z,88.40
2018-12-15T00:55:34.181Z,88.40
2018-12-15T00:58:03.513Z,89.40
2018-12-15T01:00:32.784Z,89.80
2018-12-15T01:03:02.274Z,89.20
2018-12-15T01:05:31.673Z,89.20
2018-12-15T01:08:00.699Z,89.30
2018-12-15T01:10:29.493Z,89.20
2018-12-15T01:12:58.351Z,89.40
2018-12-15T01:15:32.782Z,89.20
2018-12-15T01:18:02.259Z,88.80
2018-12-15T01:20:31.631Z,88.40
2018-12-15T01:23:00.899Z,88.90
2018-12-15T01:25:30.224Z,88.40
2018-12-15T01:27:59.364Z,88.20
2018-12-15T01:30:28.880Z,89.00
2018-12-15T01:32:58.211Z,89.20
2018-12-15T01:35:27.394Z,88.80
2018-12-15T01:37:56.491Z,88.50
2018-12-15T01:40:25.853Z,88.30
2018-12-15T01:42:54.937Z,88.00
2018-12-15T01:45:24.067Z,87.60
2018-12-15T01:47:53.253Z,87.90
2018-12-15T01:50:22.666Z,88.00
2018-12-15T01:52:51.753Z,87.40
2018-12-15T01:55:21.158Z,87.70
2018-12-15T01:57:50.247Z,87.60
2018-12-15T02:00:19.515Z,87.60
2018-12-15T02:02:48.838Z,87.80
2018-12-15T02:05:17.762Z,88.30
2018-12-15T02:07:46.879Z,87.80
2018-12-15T02:10:16.014Z,87.70
2018-12-15T02:12:45.199Z,88.00
2018-12-15T02:15:14.591Z,87.80
2018-12-15T02:17:43.598Z,87.80
2018-12-15T02:20:13.045Z,88.10
2018-12-15T02:22:42.621Z,88.20
2018-12-15T02:25:11.851Z,88.40
2018-12-15T02:27:41.350Z,88.80
2018-12-15T02:30:10.948Z,89.10
2018-12-15T02:32:39.964Z,88.60
2018-12-15T02:35:09.006Z,89.60
2018-12-15T02:37:38.189Z,88.80
2018-12-15T02:40:08.459Z,89.70
2018-12-15T02:42:37.750Z,89.00
2018-12-15T02:45:07.551Z,88.40
2018-12-15T02:47:41.567Z,88.50
2018-12-15T02:50:07.988Z,87.80
2018-12-15T02:52:37.335Z,87.50
2018-12-15T02:55:07.008Z,87.70
2018-12-15T02:57:35.919Z,86.70
2018-12-15T03:00:05.775Z,86.80
2018-12-15T03:02:34.546Z,87.50
2018-12-15T03:05:04.004Z,87.80
2018-12-15T03:07:32.817Z,88.00
2018-12-15T03:10:02.390Z,88.00
2018-12-15T03:12:31.622Z,87.90
2018-12-15T03:15:00.863Z,88.10
2018-12-15T03:17:30.257Z,87.70
2018-12-15T03:20:02.046Z,88.00
2018-12-15T03:22:31.205Z,88.70
2018-12-15T03:25:00.447Z,88.60
2018-12-15T03:27:29.622Z,88.70
2018-12-15T03:29:58.738Z,88.50
2018-12-15T03:32:28.013Z,87.00
2018-12-15T03:34:58.165Z,86.80
2018-12-15T03:37:27.530Z,87.10
2018-12-15T03:39:56.745Z,87.80
2018-12-15T03:42:25.862Z,87.00
2018-12-15T03:44:55.090Z,87.60
2018-12-15T03:47:24.258Z,88.30
2018-12-15T03:49:54.499Z,89.10
2018-12-15T03:52:23.618Z,87.30
2018-12-15T03:54:52.749Z,87.80
2018-12-15T03:57:21.845Z,88.40
2018-12-15T03:59:51.078Z,88.20
2018-12-15T04:02:20.817Z,88.50
2018-12-15T04:04:50.223Z,88.80
2018-12-15T04:07:19.385Z,89.30
2018-12-15T04:09:48.937Z,89.40
2018-12-15T04:12:17.968Z,88.50
2018-12-15T04:14:47.030Z,88.50
2018-12-15T04:17:16.088Z,89.30
2018-12-15T04:19:45.288Z,88.80
2018-12-15T04:22:21.288Z,88.80
2018-12-15T04:24:50.503Z,88.80
2018-12-15T04:27:19.788Z,88.90
2018-12-15T04:29:49.249Z,89.00
2018-12-15T04:32:18.592Z,89.00
2018-12-15T04:34:47.956Z,88.40
2018-12-15T04:37:17.375Z,89.20
2018-12-15T04:39:46.576Z,89.50
2018-12-15T04:42:16.453Z,89.60
2018-12-15T04:44:45.886Z,89.20
2018-12-15T04:47:15.496Z,89.60
2018-12-15T04:49:44.684Z,90.00
2018-12-15T04:52:14.085Z,89.80
2018-12-15T04:54:43.515Z,89.50
2018-12-15T04:57:12.566Z,89.50
2018-12-15T04:59:42.069Z,89.70
2018-12-15T05:02:11.204Z,89.60
2018-12-15T05:04:40.568Z,89.50
2018-12-15T05:07:09.916Z,88.80
2018-12-15T05:09:38.960Z,88.60
2018-12-15T05:12:08.026Z,88.80
2018-12-15T05:14:37.244Z,89.40
2018-12-15T05:17:06.559Z,88.80
2018-12-15T05:19:35.883Z,89.00
2018-12-15T05:22:05.694Z,89.00
2018-12-15T05:24:35.074Z,88.80
2018-12-15T05:27:05.125Z,88.30
2018-12-15T05:29:34.312Z,88.60
2018-12-15T05:32:03.873Z,88.80
2018-12-15T05:34:33.037Z,88.60
2018-12-15T05:37:02.410Z,87.70
2018-12-15T05:39:31.726Z,88.20
2018-12-15T05:42:00.885Z,88.50
2018-12-15T05:44:30.119Z,87.60
2018-12-15T05:47:00.525Z,88.10
2018-12-15T05:49:29.756Z,88.00
2018-12-15T05:51:58.603Z,88.60
2018-12-15T05:54:27.775Z,88.00
2018-12-15T05:56:56.968Z,88.50
2018-12-15T05:59:26.299Z,88.70
2018-12-15T06:01:55.361Z,89.70
2018-12-15T06:04:24.666Z,89.10
2018-12-15T06:06:54.382Z,88.30
2018-12-15T06:09:23.535Z,88.20
2018-12-15T06:11:53.194Z,89.00
2018-12-15T06:14:22.467Z,89.60
2018-12-15T06:16:51.959Z,90.20
2018-12-15T06:19:21.092Z,88.50
2018-12-15T06:21:50.783Z,88.50
2018-12-15T06:24:20.019Z,88.60
2018-12-15T06:26:49.134Z,88.90
2018-12-15T06:29:18.688Z,87.90
2018-12-15T06:31:48.131Z,88.50
2018-12-15T06:34:17.788Z,88.60
2018-12-15T06:36:46.969Z,88.60
2018-12-15T06:39:16.215Z,88.00
2018-12-15T06:41:45.312Z,88.70
2018-12-15T06:44:14.500Z,88.30
2018-12-15T06:46:43.617Z,88.30
2018-12-15T06:49:12.961Z,88.40
2018-12-15T06:51:42.209Z,88.70
2018-12-15T06:54:11.353Z,88.60
2018-12-15T06:56:40.975Z,89.10
2018-12-15T06:59:10.287Z,89.60
2018-12-15T07:01:39.618Z,89.50
2018-12-15T07:04:08.626Z,89.40
2018-12-15T07:06:38.043Z,89.40
2018-12-15T07:09:07.751Z,89.80
2018-12-15T07:11:36.643Z,90.00
2018-12-15T07:14:06.284Z,90.00
2018-12-15T07:16:35.810Z,90.00
2018-12-15T07:19:05.046Z,90.10
2018-12-15T07:21:34.391Z,90.00
2018-12-15T07:24:03.365Z,90.00
2018-12-15T07:26:32.448Z,89.90
2018-12-15T07:29:01.591Z,90.00
2018-12-15T07:31:30.933Z,90.00
2018-12-15T07:34:00.146Z,90.00
2018-12-15T07:36:29.203Z,90.00
2018-12-15T07:38:58.598Z,90.30
2018-12-15T07:41:27.946Z,90.10
2018-12-15T07:43:57.034Z,89.50
2018-12-15T07:46:25.776Z,89.30
2018-12-15T07:48:54.927Z,89.30
2018-12-15T07:51:24.081Z,89.00
2018-12-15T07:53:53.619Z,89.30
2018-12-15T07:56:27.099Z,89.60
2018-12-15T07:58:56.819Z,90.00
2018-12-15T08:01:26.035Z,88.10
2018-12-15T08:03:55.509Z,88.80
2018-12-15T08:06:24.826Z,88.60
2018-12-15T08:08:54.151Z,88.70
2018-12-15T08:11:28.602Z,88.20
2018-12-15T08:14:07.694Z,89.00
2018-12-15T08:16:36.938Z,88.50
2018-12-15T08:19:06.236Z,89.00
2018-12-15T08:21:35.603Z,88.90
2018-12-15T08:24:05.190Z,88.40
2018-12-15T08:26:34.423Z,88.40
2018-12-15T08:29:03.998Z,87.60
2018-12-15T08:31:33.330Z,87.60
2018-12-15T08:34:02.564Z,88.10
2018-12-15T08:36:32.002Z,87.90
2018-12-15T08:39:01.135Z,87.20
2018-12-15T08:41:30.269Z,87.30
2018-12-15T08:43:59.511Z,87.80
2018-12-15T08:46:28.626Z,87.30
2018-12-15T08:49:04.421Z,86.70
2018-12-15T08:51:29.127Z,86.80
2018-12-15T08:53:58.436Z,86.30
2018-12-15T08:56:28.097Z,86.40
2018-12-15T08:58:57.055Z,86.50
2018-12-15T09:01:26.271Z,86.30
2018-12-15T09:03:55.518Z,86.80
2018-12-15T09:06:24.515Z,86.00
2018-12-15T09:08:53.563Z,86.20
2018-12-15T09:11:22.995Z,86.50
2018-12-15T09:13:52.784Z,85.60
2018-12-15T09:16:26.333Z,85.70
2018-12-15T09:18:52.972Z,85.80
2018-12-15T09:21:22.211Z,85.00
2018-12-15T09:23:51.569Z,84.50
2018-12-15T09:26:21.048Z,84.80
2018-12-15T09:28:50.821Z,84.00
2018-12-15T09:31:20.039Z,83.70
2018-12-15T09:33:49.726Z,83.70
2018-12-15T09:36:19.271Z,84.60
2018-12-15T09:38:50.884Z,84.80
2018-12-15T09:41:20.108Z,84.80
2018-12-15T09:43:49.335Z,84.00
2018-12-15T09:46:19.103Z,83.60
2018-12-15T09:48:48.262Z,83.80
2018-12-15T09:51:17.539Z,83.80
2018-12-15T09:53:46.827Z,83.90
2018-12-15T09:56:15.990Z,83.10
2018-12-15T09:58:45.051Z,83.20
2018-12-15T10:01:14.350Z,84.00
2018-12-15T10:03:44.199Z,84.00
2018-12-15T10:06:13.367Z,83.50
2018-12-15T10:08:42.812Z,83.10
2018-12-15T10:11:11.903Z,83.60
2018-12-15T10:13:41.814Z,82.30
2018-12-15T10:16:11.171Z,83.50
2018-12-15T10:18:40.275Z,82.50
2018-12-15T10:21:09.397Z,83.00
2018-12-15T10:23:38.655Z,82.20
2018-12-15T10:26:07.874Z,82.80
2018-12-15T10:28:37.036Z,82.10
2018-12-15T10:31:11.388Z,81.90
2018-12-15T10:33:40.586Z,82.50
2018-12-15T10:36:09.955Z,83.30
2018-12-15T10:38:39.364Z,82.70
2018-12-15T10:41:08.591Z,82.90
2018-12-15T10:43:37.895Z,83.30
2018-12-15T10:46:07.215Z,83.90
2018-12-15T10:48:36.023Z,83.30
2018-12-15T10:51:05.151Z,83.30
2018-12-15T10:53:34.490Z,83.40
2018-12-15T10:56:03.820Z,83.10
2018-12-15T10:58:32.948Z,83.20
2018-12-15T11:01:07.127Z,83.10
2018-12-15T11:03:36.448Z,82.90
2018-12-15T11:06:05.718Z,82.30
2018-12-15T11:08:35.483Z,82.90
2018-12-15T11:11:04.394Z,83.50
2018-12-15T11:13:33.985Z,83.70
2018-12-15T11:16:03.255Z,83.70
2018-12-15T11:18:32.788Z,83.30
2018-12-15T11:21:02.199Z,82.50
2018-12-15T11:23:31.682Z,81.70
2018-12-15T11:26:00.833Z,81.50
2018-12-15T11:28:30.116Z,80.90
2018-12-15T11:30:59.342Z,81.50
2018-12-15T11:33:28.610Z,82.30
2018-12-15T11:35:57.743Z,81.40
2018-12-15T11:38:27.138Z,81.50
2018-12-15T11:40:56.379Z,82.50
2018-12-15T11:43:25.546Z,82.10
2018-12-15T11:45:55.320Z,82.20
2018-12-15T11:48:24.602Z,81.10
2018-12-15T11:50:53.821Z,81.60
2018-12-15T11:53:23.011Z,81.70
2018-12-15T11:55:52.187Z,82.60
2018-12-15T11:58:21.397Z,82.20
2018-12-15T12:00:50.682Z,81.80
2018-12-15T12:03:19.820Z,81.10
2018-12-15T12:05:49.327Z,80.50
2018-12-15T12:08:18.657Z,80.50
2018-12-15T12:10:48.074Z,80.30
2018-12-15T12:13:17.406Z,81.80
2018-12-15T12:15:46.737Z,81.10
2018-12-15T12:18:16.104Z,81.50
2018-12-15T12:20:44.954Z,81.90
2018-12-15T12:23:14.043Z,81.30
2018-12-15T12:25:43.307Z,80.40
2018-12-15T12:28:12.685Z,80.30
2018-12-15T12:30:41.929Z,81.40
2018-12-15T12:33:10.999Z,81.10
2018-12-15T12:35:40.394Z,81.70
2018-12-15T12:38:09.559Z,81.30
2018-12-15T12:40:38.743Z,80.30
2018-12-15T12:43:08.310Z,79.00
2018-12-15T12:45:37.386Z,79.90
2018-12-15T12:48:06.618Z,79.50
2018-12-15T12:50:35.866Z,79.50
2018-12-15T12:53:04.899Z,79.30
2018-12-15T12:55:33.626Z,79.40
2018-12-15T12:58:02.942Z,80.30
2018-12-15T13:00:32.346Z,80.70
2018-12-15T13:03:01.979Z,79.90
2018-12-15T13:05:31.235Z,79.90
2018-12-15T13:08:00.361Z,79.30
2018-12-15T13:10:29.636Z,79.90
2018-12-15T13:12:58.562Z,80.10
2018-12-15T13:15:27.682Z,80.80
2018-12-15T13:17:56.906Z,81.10
2018-12-15T13:20:27.126Z,80.90
2018-12-15T13:22:56.343Z,81.40
2018-12-15T13:25:25.994Z,81.20
2018-12-15T13:27:55.243Z,81.60
2018-12-15T13:30:24.178Z,81.70
2018-12-15T13:32:53.460Z,82.00
2018-12-15T13:35:22.511Z,82.10
2018-12-15T13:37:51.546Z,81.80
2018-12-15T13:40:20.796Z,82.20
2018-12-15T13:42:50.682Z,82.40
2018-12-15T13:45:19.828Z,81.30
2018-12-15T13:47:49.476Z,81.20
2018-12-15T13:50:18.746Z,81.10
2018-12-15T13:52:48.163Z,81.60
2018-12-15T13:55:17.735Z,81.80
2018-12-15T13:57:47.287Z,82.10
2018-12-15T14:00:16.398Z,81.30
2018-12-15T14:02:46.098Z,80.70
2018-12-15T14:05:14.929Z,80.70
2018-12-15T14:07:44.416Z,81.00
2018-12-15T14:10:13.772Z,82.90
2018-12-15T14:12:43.095Z,82.20
2018-12-15T14:15:12.423Z,82.10
2018-12-15T14:17:41.873Z,82.40
2018-12-15T14:20:16.544Z,81.80
2018-12-15T14:22:42.720Z,81.90
2018-12-15T14:25:11.836Z,81.90
2018-12-15T14:27:42.346Z,82.30
2018-12-15T14:30:11.397Z,81.90
2018-12-15T14:32:40.752Z,82.20
2018-12-15T14:35:10.450Z,82.20
2018-12-15T14:37:39.603Z,82.90
2018-12-15T14:40:09.156Z,83.10
2018-12-15T14:42:38.560Z,82.90
2018-12-15T14:45:08.108Z,83.60
2018-12-15T14:47:37.409Z,83.80
2018-12-15T14:50:07.111Z,84.30
2018-12-15T14:52:36.275Z,83.70
2018-12-15T14:55:07.031Z,83.10
2018-12-15T14:57:36.414Z,82.90
2018-12-15T15:00:07.678Z,83.50
2018-12-15T15:02:37.047Z,83.60
2018-12-15T15:05:06.843Z,83.30
2018-12-15T15:07:36.025Z,83.70
2018-12-15T15:10:05.766Z,84.40
2018-12-15T15:12:35.014Z,84.30
2018-12-15T15:15:05.071Z,84.30
2018-12-15T15:17:34.326Z,84.60
2018-12-15T15:20:03.622Z,84.20
2018-12-15T15:22:32.700Z,84.70
2018-12-15T15:25:02.155Z,84.90
2018-12-15T15:27:31.435Z,85.60
2018-12-15T15:30:00.689Z,85.60
2018-12-15T15:32:30.078Z,85.50
2018-12-15T15:34:59.598Z,86.10
2018-12-15T15:37:28.801Z,86.00
2018-12-15T15:39:58.092Z,86.40
2018-12-15T15:42:27.119Z,86.10
2018-12-15T15:44:56.304Z,86.90
2018-12-15T15:47:25.754Z,87.20
2018-12-15T15:49:54.977Z,86.90
2018-12-15T15:52:24.379Z,87.20
2018-12-15T15:54:53.680Z,87.60
2018-12-15T15:57:23.073Z,88.40
2018-12-15T15:59:52.587Z,86.80
2018-12-15T16:02:21.937Z,86.40
2018-12-15T16:04:51.352Z,86.60
2018-12-15T16:07:20.683Z,85.70
2018-12-15T16:09:49.967Z,86.00
2018-12-15T16:12:19.303Z,85.80
2018-12-15T16:14:48.467Z,86.00
2018-12-15T16:17:17.691Z,85.50
2018-12-15T16:19:46.835Z,86.00
2018-12-15T16:22:16.721Z,85.80
2018-12-15T16:24:46.105Z,85.90
2018-12-15T16:27:15.485Z,87.20
2018-12-15T16:29:44.621Z,86.80
2018-12-15T16:32:13.801Z,86.80
2018-12-15T16:34:43.550Z,86.70
2018-12-15T16:37:13.051Z,87.00
2018-12-15T16:39:42.586Z,87.40
2018-12-15T16:42:11.898Z,87.20
2018-12-15T16:44:41.542Z,87.10
2018-12-15T16:47:11.080Z,87.40
2018-12-15T16:49:40.439Z,87.10
2018-12-15T16:52:09.795Z,86.60
2018-12-15T16:54:38.806Z,87.30
2018-12-15T16:57:07.934Z,87.70
2018-12-15T16:59:37.170Z,87.10
2018-12-15T17:02:06.134Z,87.40
2018-12-15T17:04:35.219Z,87.50
2018-12-15T17:07:04.472Z,87.40
2018-12-15T17:09:34.351Z,87.50
2018-12-15T17:12:04.064Z,87.20
2018-12-15T17:14:33.239Z,87.90
2018-12-15T17:17:02.618Z,88.20
2018-12-15T17:19:31.930Z,88.00
2018-12-15T17:22:01.301Z,88.00
2018-12-15T17:24:30.378Z,88.00
2018-12-15T17:26:59.524Z,88.80
2018-12-15T17:29:28.755Z,88.30
2018-12-15T17:31:58.238Z,88.20
2018-12-15T17:34:27.374Z,88.20
2018-12-15T17:36:56.568Z,88.40
2018-12-15T17:39:25.982Z,88.60
2018-12-15T17:41:55.296Z,88.20
2018-12-15T17:44:24.499Z,87.80
2018-12-15T17:46:53.863Z,87.80
2018-12-15T17:49:23.235Z,88.10
2018-12-15T17:51:52.343Z,87.80
2018-12-15T17:54:21.821Z,88.00
2018-12-15T17:56:51.037Z,87.60
2018-12-15T17:59:20.635Z,87.40
2018-12-15T18:01:50.084Z,87.70
2018-12-15T18:04:19.284Z,87.80
2018-12-15T18:06:48.615Z,87.70
2018-12-15T18:09:17.794Z,87.80
2018-12-15T18:11:46.972Z,87.60
2018-12-15T18:14:16.111Z,87.40
2018-12-15T18:16:45.715Z,87.50
2018-12-15T18:19:15.444Z,87.50
2018-12-15T18:21:45.039Z,88.20
2018-12-15T18:24:14.185Z,87.60
2018-12-15T18:26:43.443Z,87.50
2018-12-15T18:29:12.599Z,87.90
2018-12-15T18:31:42.222Z,88.00
2018-12-15T18:34:18.017Z,88.40
2018-12-15T18:36:47.323Z,88.40
2018-12-15T18:39:16.727Z,88.30
2018-12-15T18:41:46.086Z,87.60
2018-12-15T18:44:15.714Z,87.60
2018-12-15T18:46:44.940Z,88.00
2018-12-15T18:49:14.275Z,87.80
2018-12-15T18:51:44.017Z,88.00
2018-12-15T18:54:13.159Z,88.00
2018-12-15T18:56:42.717Z,88.00
2018-12-15T18:59:12.260Z,88.40
2018-12-15T19:01:41.431Z,89.20
2018-12-15T19:04:10.644Z,89.50
2018-12-15T19:06:39.779Z,89.00
2018-12-15T19:09:09.307Z,88.90
2018-12-15T19:11:38.630Z,88.80
2018-12-15T19:14:07.903Z,88.80
2018-12-15T19:16:37.603Z,88.90
2018-12-15T19:19:08.532Z,88.70
2018-12-15T19:21:37.711Z,88.70
2018-12-15T19:24:07.014Z,88.90
2018-12-15T19:26:36.113Z,89.40
2018-12-15T19:29:05.218Z,89.20
2018-12-15T19:31:34.492Z,89.80
2018-12-15T19:34:03.603Z,90.00
2018-12-15T19:36:32.823Z,89.40
2018-12-15T19:39:02.302Z,89.10
2018-12-15T19:41:31.671Z,89.30
2018-12-15T19:44:00.781Z,89.40
2018-12-15T19:46:30.073Z,89.80
2018-12-15T19:48:59.228Z,89.90
2018-12-15T19:51:29.772Z,90.10
2018-12-15T19:53:59.304Z,90.20
2018-12-15T19:56:28.391Z,90.20
2018-12-15T19:58:57.751Z,90.50
2018-12-15T20:01:26.938Z,90.70
2018-12-15T20:03:56.015Z,90.60
2018-12-15T20:06:25.255Z,90.60
2018-12-15T20:08:54.679Z,90.80
2018-12-15T20:11:23.829Z,91.10
2018-12-15T20:13:52.983Z,91.30
2018-12-15T20:16:22.260Z,91.40
2018-12-15T20:18:58.859Z,91.60
2018-12-15T20:21:28.594Z,91.90
2018-12-15T20:23:57.716Z,92.20
2018-12-15T20:26:26.915Z,92.70
2018-12-15T20:28:56.033Z,92.90
2018-12-15T20:31:25.434Z,93.50
2018-12-15T20:33:54.871Z,93.30
2018-12-15T20:36:24.018Z,93.40
2018-12-15T20:38:53.335Z,93.50
2018-12-15T20:41:22.567Z,93.50
2018-12-15T20:43:51.755Z,93.60
2018-12-15T20:46:20.870Z,93.60
2018-12-15T20:48:50.103Z,93.70
2018-12-15T20:51:19.212Z,93.70
2018-12-15T20:53:48.138Z,93.70
2018-12-15T20:56:17.217Z,93.80
2018-12-15T20:58:46.358Z,94.00
2018-12-15T21:01:16.139Z,94.20
2018-12-15T21:03:45.353Z,94.40
2018-12-15T21:06:14.770Z,94.50
2018-12-15T21:08:44.204Z,94.50
2018-12-15T21:11:13.578Z,94.50
2018-12-15T21:13:43.057Z,94.70
2018-12-15T21:16:12.260Z,94.80
2018-12-15T21:18:41.633Z,94.90
2018-12-15T21:21:10.771Z,94.90
2018-12-15T21:23:40.452Z,95.00
2018-12-15T21:26:10.158Z,95.10
2018-12-15T21:28:40.060Z,95.10
2018-12-15T21:31:09.571Z,95.20
2018-12-15T21:33:38.864Z,95.40
2018-12-15T21:36:08.159Z,95.70
2018-12-15T21:38:37.680Z,96.00
2018-12-15T21:41:06.981Z,95.90
2018-12-15T21:43:36.686Z,95.80
2018-12-15T21:46:05.859Z,95.80
2018-12-15T21:48:35.046Z,95.80
2018-12-15T21:51:04.232Z,95.70
2018-12-15T21:53:33.359Z,95.70
2018-12-15T21:56:02.492Z,95.60
2018-12-15T21:58:31.604Z,95.60
2018-12-15T22:01:00.916Z,95.50
2018-12-15T22:03:30.153Z,95.30
2018-12-15T22:05:59.417Z,95.20
2018-12-15T22:08:28.688Z,95.10
2018-12-15T22:10:57.979Z,95.00
2018-12-15T22:13:27.066Z,94.90
2018-12-15T22:15:56.612Z,94.70
2018-12-15T22:18:26.037Z,94.60
2018-12-15T22:20:55.163Z,94.70
2018-12-15T22:23:24.233Z,94.70
2018-12-15T22:25:53.225Z,94.50
2018-12-15T22:28:22.565Z,94.50
2018-12-15T22:30:52.119Z,94.30
2018-12-15T22:33:21.395Z,94.40
2018-12-15T22:35:50.722Z,94.50
2018-12-15T22:38:19.815Z,94.50
2018-12-15T22:40:48.982Z,94.50
2018-12-15T22:43:18.390Z,94.60
2018-12-15T22:45:47.547Z,94.70
2018-12-15T22:48:17.315Z,94.70
2018-12-15T22:50:47.418Z,94.80
2018-12-15T22:53:16.643Z,94.80
2018-12-15T22:55:45.394Z,94.70
2018-12-15T22:58:14.808Z,94.60
2018-12-15T23:00:49.602Z,94.60
2018-12-15T23:03:19.359Z,94.80
2018-12-15T23:05:49.056Z,94.70
2018-12-15T23:08:18.406Z,94.50
2018-12-15T23:10:48.069Z,94.50
2018-12-15T23:13:17.528Z,94.40
2018-12-15T23:15:46.871Z,94.40
2018-12-15T23:18:16.210Z,94.50
2018-12-15T23:20:45.731Z,94.30
2018-12-15T23:23:15.177Z,94.50
2018-12-15T23:25:44.182Z,94.30
2018-12-15T23:28:13.258Z,94.10
2018-12-15T23:30:42.574Z,94.00
2018-12-15T23:33:11.480Z,93.80
2018-12-15T23:35:40.289Z,93.70
2018-12-15T23:38:09.944Z,93.50
2018-12-15T23:40:39.195Z,93.30
2018-12-15T23:43:08.347Z,93.30
2018-12-15T23:45:37.674Z,93.20
2018-12-15T23:48:07.398Z,93.10
2018-12-15T23:50:36.546Z,93.10
2018-12-15T23:53:05.343Z,93.10
2018-12-15T23:55:34.544Z,93.30
2018-12-15T23:58:03.743Z,93.20
